航空気象通報

ウインドサーファーのための航空気象通報による風予報です。

4/11-12の航空気象通報(国内、海外)

2008年04月11日 23時47分22秒 | TAF
羽田空港
TAF RJTT 110844Z 111812 35010KT 9999 FEW030
BECMG 0003 15010KT
BECMG 0912 31005KT
日本時間12日03-09時:350度から10ノットの風
09-12時:風が変化
12-18時:150度から10ノットの風
18-21時:風が変化
21時:310度から10ノットの風


那覇空港
TAF ROAH 110842Z 111812 08006KT 9999 FEW020 BKN030
BECMG 0306 11008KT
日本時間12日03-12時:080度から6ノットの風
12-15時:風が変化
15-21時:110度から8ノットの風


マウイのカフルイ空港
PHOG 111120Z 111212 04008KT P6SM SCT050 OVC180
FM2100 04012G22KT P6SM SCT035 OVC180
FM0400 05010KT P6SM SCT050 BKN180
ハワイ時間11日02-11時:040度から8ノットの風
11-18時:040度から12ノット、突風22ノット
18時-12日02時:050度から10ノットの風


サイパン空港
PGSN 111128Z 111212 10011KT P6SM VCSH SCT020 SCT040 BKN150
TEMPO 1216 5SM SHRA BKN018 BKN040
マリアナ時間11日22時-12日22時:100度から11ノットの風

コメント